KAZ320 EFHK-LPPR
Flight info
| Callsign | KAZ320 |
|---|---|
| Flight time | 4h 7m |
| Altitude | 38000 |
| Route | NUNTO Y369 REKDO DCT KOSKA DCT VEPIP DCT DEMIR DCT SUSET/N0460F390 Z310 WOODY N872 MEDIL DCT KOVIN DCT NIDUV DCT KIHVI UN872 TERPO/N0458F350 UN872 ERIGA UZ218 FUJTI DCT ATLEN DCT INSID T326 ASPOR |
| Aircraft | A20N/M-SDE2E3FGHIRWXY/LB1 |
Departure
| Time | 2026-05-07 15:02 |
|---|---|
| Airport | Helsinki Vantaa Airport (EFHK) |
Arrival
| Time | 2026-05-07 19:10 |
|---|---|
| Airport | Francisco de Sá Carneiro Airport (LPPR) |
| Time | Latitude | Longitude | Altitude | Speed | Heading |
|---|---|---|---|---|---|
| 2026-05-07 14:25 | 60.32030 | 24.96587 | 163 ft | 0 kts | 137° |
| 2026-05-07 14:53 | 60.32025 | 24.96597 | 163 ft | 1 kts | 137° |
| 2026-05-07 14:54 | 60.32015 | 24.96630 | 163 ft | 3 kts | 104° |
| 2026-05-07 14:54 | 60.32022 | 24.96688 | 163 ft | 5 kts | 53° |
| 2026-05-07 14:54 | 60.32050 | 24.96751 | 164 ft | 6 kts | 47° |
| 2026-05-07 14:54 | 60.32080 | 24.96817 | 164 ft | 6 kts | 47° |
| 2026-05-07 14:55 | 60.32112 | 24.96887 | 165 ft | 6 kts | 47° |
| 2026-05-07 14:55 | 60.32147 | 24.96956 | 166 ft | 7 kts | 34° |
| 2026-05-07 14:55 | 60.32192 | 24.96961 | 167 ft | 6 kts | 331° |
| 2026-05-07 14:55 | 60.32236 | 24.96911 | 168 ft | 7 kts | 331° |
| 2026-05-07 14:56 | 60.32287 | 24.96854 | 168 ft | 9 kts | 319° |
| 2026-05-07 14:56 | 60.32275 | 24.96724 | 167 ft | 12 kts | 227° |
| 2026-05-07 14:56 | 60.32210 | 24.96584 | 165 ft | 15 kts | 226° |
| 2026-05-07 14:56 | 60.32132 | 24.96412 | 163 ft | 18 kts | 228° |
| 2026-05-07 14:57 | 60.32046 | 24.96223 | 163 ft | 18 kts | 227° |
| 2026-05-07 14:57 | 60.31972 | 24.96011 | 163 ft | 16 kts | 263° |
| 2026-05-07 14:57 | 60.32029 | 24.95838 | 168 ft | 14 kts | 318° |
| 2026-05-07 14:57 | 60.32098 | 24.95711 | 170 ft | 13 kts | 317° |
| 2026-05-07 14:58 | 60.32171 | 24.95575 | 170 ft | 14 kts | 317° |
| 2026-05-07 14:58 | 60.32246 | 24.95435 | 172 ft | 14 kts | 317° |
| 2026-05-07 14:58 | 60.32322 | 24.95295 | 173 ft | 14 kts | 321° |
| 2026-05-07 14:58 | 60.32418 | 24.95219 | 174 ft | 14 kts | 342° |
| 2026-05-07 14:59 | 60.32515 | 24.95159 | 176 ft | 14 kts | 343° |
| 2026-05-07 14:59 | 60.32616 | 24.95098 | 176 ft | 15 kts | 340° |
| 2026-05-07 14:59 | 60.32720 | 24.95023 | 176 ft | 16 kts | 342° |
| 2026-05-07 14:59 | 60.32828 | 24.94953 | 178 ft | 15 kts | 342° |
| 2026-05-07 15:00 | 60.32923 | 24.94855 | 181 ft | 15 kts | 319° |
| 2026-05-07 15:00 | 60.33001 | 24.94714 | 183 ft | 14 kts | 317° |
| 2026-05-07 15:00 | 60.33075 | 24.94574 | 185 ft | 14 kts | 317° |
| 2026-05-07 15:00 | 60.33110 | 24.94409 | 186 ft | 14 kts | 249° |
| 2026-05-07 15:01 | 60.33058 | 24.94270 | 186 ft | 0 kts | 227° |
| 2026-05-07 15:01 | 60.33038 | 24.94225 | 186 ft | 22 kts | 227° |
| 2026-05-07 15:02 | 60.32719 | 24.93521 | 181 ft | 109 kts | 227° |
| 2026-05-07 15:02 | 60.32049 | 24.92030 | 300 ft | 165 kts | 225° |
| 2026-05-07 15:02 | 60.31279 | 24.90350 | 1042 ft | 169 kts | 225° |
| 2026-05-07 15:02 | 60.30506 | 24.88645 | 1963 ft | 168 kts | 230° |
| 2026-05-07 15:03 | 60.29833 | 24.86662 | 2639 ft | 179 kts | 241° |
| 2026-05-07 15:03 | 60.29541 | 24.84190 | 3204 ft | 194 kts | 276° |
| 2026-05-07 15:03 | 60.29836 | 24.81494 | 3798 ft | 209 kts | 288° |
| 2026-05-07 15:03 | 60.30215 | 24.78560 | 4364 ft | 231 kts | 277° |
| 2026-05-07 15:04 | 60.29919 | 24.75261 | 5108 ft | 249 kts | 251° |
| 2026-05-07 15:04 | 60.29266 | 24.72076 | 6192 ft | 249 kts | 250° |
| 2026-05-07 15:04 | 60.28606 | 24.68918 | 7214 ft | 251 kts | 250° |
| 2026-05-07 15:04 | 60.27940 | 24.65702 | 8274 ft | 252 kts | 250° |
| 2026-05-07 15:05 | 60.27277 | 24.62479 | 9311 ft | 253 kts | 250° |
| 2026-05-07 15:05 | 60.26603 | 24.59186 | 10108 ft | 266 kts | 249° |
| 2026-05-07 15:05 | 60.25884 | 24.55683 | 10911 ft | 277 kts | 249° |
| 2026-05-07 15:05 | 60.25147 | 24.52099 | 11979 ft | 278 kts | 249° |
| 2026-05-07 15:06 | 60.24395 | 24.48610 | 13055 ft | 278 kts | 246° |
| 2026-05-07 15:06 | 60.23509 | 24.45149 | 14001 ft | 284 kts | 244° |
| 2026-05-07 15:06 | 60.22545 | 24.41543 | 14551 ft | 302 kts | 244° |
| 2026-05-07 15:06 | 60.21533 | 24.37769 | 15009 ft | 320 kts | 244° |
| 2026-05-07 15:07 | 60.20443 | 24.33719 | 15418 ft | 338 kts | 243° |
| 2026-05-07 15:07 | 60.19289 | 24.29443 | 15799 ft | 357 kts | 243° |
| 2026-05-07 15:07 | 60.18091 | 24.25014 | 16143 ft | 373 kts | 243° |
| 2026-05-07 15:07 | 60.16840 | 24.20401 | 16744 ft | 381 kts | 243° |
| 2026-05-07 15:08 | 60.15566 | 24.15717 | 17541 ft | 383 kts | 243° |
| 2026-05-07 15:08 | 60.14305 | 24.11085 | 18306 ft | 385 kts | 243° |
| 2026-05-07 15:08 | 60.13010 | 24.06336 | 19040 ft | 388 kts | 243° |
| 2026-05-07 15:08 | 60.11726 | 24.01640 | 19711 ft | 392 kts | 243° |
| 2026-05-07 15:09 | 60.10408 | 23.96829 | 20400 ft | 394 kts | 243° |
| 2026-05-07 15:09 | 60.09110 | 23.92104 | 21093 ft | 395 kts | 243° |
| 2026-05-07 15:09 | 60.07785 | 23.87235 | 21775 ft | 396 kts | 244° |
| 2026-05-07 15:09 | 60.06520 | 23.82420 | 22379 ft | 398 kts | 244° |
| 2026-05-07 15:10 | 60.05232 | 23.77472 | 22972 ft | 400 kts | 244° |
| 2026-05-07 15:10 | 60.03955 | 23.72575 | 23547 ft | 402 kts | 244° |
| 2026-05-07 15:10 | 60.02656 | 23.67618 | 24071 ft | 405 kts | 244° |
| 2026-05-07 15:10 | 60.01346 | 23.62631 | 24571 ft | 407 kts | 244° |
| 2026-05-07 15:11 | 60.00042 | 23.57684 | 25017 ft | 409 kts | 244° |
| 2026-05-07 15:11 | 59.98718 | 23.52677 | 25517 ft | 410 kts | 244° |
| 2026-05-07 15:11 | 59.97387 | 23.47658 | 26129 ft | 408 kts | 244° |
| 2026-05-07 15:11 | 59.96067 | 23.42695 | 26754 ft | 405 kts | 244° |
| 2026-05-07 15:12 | 59.94767 | 23.37817 | 27319 ft | 403 kts | 243° |
| 2026-05-07 15:12 | 59.93456 | 23.32908 | 27868 ft | 402 kts | 243° |
| 2026-05-07 15:12 | 59.92130 | 23.27959 | 28439 ft | 400 kts | 243° |
| 2026-05-07 15:12 | 59.90835 | 23.23128 | 28990 ft | 398 kts | 243° |
| 2026-05-07 15:13 | 59.89532 | 23.18278 | 29533 ft | 397 kts | 243° |
| 2026-05-07 15:13 | 59.88237 | 23.13475 | 30064 ft | 396 kts | 243° |
| 2026-05-07 15:13 | 59.86935 | 23.08656 | 30597 ft | 394 kts | 243° |
| 2026-05-07 15:13 | 59.85628 | 23.03826 | 31109 ft | 393 kts | 243° |
| 2026-05-07 15:14 | 59.84349 | 22.99108 | 31551 ft | 392 kts | 243° |
| 2026-05-07 15:14 | 59.83063 | 22.94377 | 31951 ft | 392 kts | 243° |
| 2026-05-07 15:14 | 59.81772 | 22.89634 | 32333 ft | 392 kts | 243° |
| 2026-05-07 15:14 | 59.80470 | 22.84862 | 32657 ft | 392 kts | 243° |
| 2026-05-07 15:15 | 59.79180 | 22.80147 | 32952 ft | 392 kts | 243° |
| 2026-05-07 15:15 | 59.77884 | 22.75413 | 33254 ft | 393 kts | 243° |
| 2026-05-07 15:15 | 59.76577 | 22.70652 | 33548 ft | 393 kts | 243° |
| 2026-05-07 15:15 | 59.75282 | 22.65939 | 33831 ft | 393 kts | 243° |
| 2026-05-07 15:16 | 59.73983 | 22.61224 | 34101 ft | 393 kts | 243° |
| 2026-05-07 15:16 | 59.72665 | 22.56451 | 34383 ft | 393 kts | 243° |
| 2026-05-07 15:16 | 59.71360 | 22.51739 | 34649 ft | 394 kts | 243° |
| 2026-05-07 15:16 | 59.70058 | 22.47043 | 34899 ft | 394 kts | 243° |
| 2026-05-07 15:17 | 59.68729 | 22.42262 | 35160 ft | 394 kts | 243° |
| 2026-05-07 15:17 | 59.67420 | 22.37559 | 35403 ft | 395 kts | 243° |
| 2026-05-07 15:17 | 59.66099 | 22.32825 | 35652 ft | 395 kts | 242° |
| 2026-05-07 15:17 | 59.64770 | 22.28076 | 35916 ft | 396 kts | 242° |
| 2026-05-07 15:18 | 59.63436 | 22.23313 | 36154 ft | 396 kts | 242° |
| 2026-05-07 15:18 | 59.62104 | 22.18567 | 36374 ft | 397 kts | 242° |
| 2026-05-07 15:18 | 59.60782 | 22.13873 | 36559 ft | 399 kts | 242° |
| 2026-05-07 15:18 | 59.59433 | 22.09089 | 36712 ft | 401 kts | 242° |
| 2026-05-07 15:19 | 59.58078 | 22.04295 | 36870 ft | 403 kts | 242° |
| 2026-05-07 15:19 | 59.56720 | 21.99495 | 37064 ft | 404 kts | 242° |
| 2026-05-07 15:19 | 59.55356 | 21.94688 | 37221 ft | 405 kts | 242° |
| 2026-05-07 15:19 | 59.53970 | 21.89812 | 37370 ft | 407 kts | 242° |
| 2026-05-07 15:20 | 59.52587 | 21.84959 | 37521 ft | 409 kts | 242° |
| 2026-05-07 15:20 | 59.51212 | 21.80145 | 37669 ft | 410 kts | 242° |
| 2026-05-07 15:20 | 59.49812 | 21.75253 | 37776 ft | 412 kts | 242° |
| 2026-05-07 15:20 | 59.48394 | 21.70311 | 37897 ft | 414 kts | 242° |
| 2026-05-07 15:21 | 59.46977 | 21.65384 | 38052 ft | 415 kts | 242° |
| 2026-05-07 15:21 | 59.45554 | 21.60447 | 38068 ft | 417 kts | 242° |
| 2026-05-07 15:21 | 59.42718 | 21.50632 | 38088 ft | 417 kts | 242° |
| 2026-05-07 15:22 | 59.39861 | 21.40774 | 38114 ft | 417 kts | 242° |
| 2026-05-07 15:22 | 59.36998 | 21.30940 | 38094 ft | 417 kts | 241° |
| 2026-05-07 15:23 | 59.34117 | 21.21078 | 38107 ft | 417 kts | 241° |
| 2026-05-07 15:23 | 59.31228 | 21.11235 | 38107 ft | 417 kts | 241° |
| 2026-05-07 15:24 | 59.28355 | 21.01485 | 38124 ft | 417 kts | 241° |
| 2026-05-07 15:24 | 59.25461 | 20.91710 | 38111 ft | 417 kts | 241° |
| 2026-05-07 15:25 | 59.22545 | 20.81903 | 38112 ft | 417 kts | 241° |
| 2026-05-07 15:25 | 59.19633 | 20.72152 | 38105 ft | 419 kts | 241° |
| 2026-05-07 15:26 | 59.16528 | 20.62665 | 38114 ft | 420 kts | 237° |
| 2026-05-07 15:26 | 59.13234 | 20.53273 | 38105 ft | 420 kts | 238° |
| 2026-05-07 15:27 | 59.09954 | 20.43935 | 38117 ft | 420 kts | 237° |
| 2026-05-07 15:27 | 59.06667 | 20.34625 | 38116 ft | 420 kts | 237° |
| 2026-05-07 15:28 | 59.03351 | 20.25283 | 38121 ft | 421 kts | 237° |
| 2026-05-07 15:28 | 59.00040 | 20.15984 | 38130 ft | 421 kts | 237° |
| 2026-05-07 15:29 | 58.96708 | 20.06672 | 38113 ft | 421 kts | 237° |
| 2026-05-07 15:29 | 58.93375 | 19.97388 | 38115 ft | 421 kts | 237° |
| 2026-05-07 15:30 | 58.90059 | 19.88188 | 38104 ft | 421 kts | 237° |
| 2026-05-07 15:30 | 58.86689 | 19.78871 | 38113 ft | 422 kts | 237° |
| 2026-05-07 15:31 | 58.83340 | 19.69656 | 38125 ft | 422 kts | 237° |
| 2026-05-07 15:31 | 58.79977 | 19.60438 | 38121 ft | 422 kts | 237° |
| 2026-05-07 15:32 | 58.76588 | 19.51183 | 38117 ft | 422 kts | 237° |
| 2026-05-07 15:32 | 58.73229 | 19.42046 | 38119 ft | 423 kts | 237° |
| 2026-05-07 15:33 | 58.69828 | 19.32829 | 38126 ft | 423 kts | 236° |
| 2026-05-07 15:33 | 58.66422 | 19.23638 | 38121 ft | 423 kts | 236° |
| 2026-05-07 15:34 | 58.63008 | 19.14456 | 38120 ft | 423 kts | 236° |
| 2026-05-07 15:34 | 58.59608 | 19.05344 | 38124 ft | 423 kts | 236° |
| 2026-05-07 15:35 | 58.56188 | 18.96216 | 38130 ft | 423 kts | 236° |
| 2026-05-07 15:35 | 58.52765 | 18.87119 | 38122 ft | 424 kts | 236° |
| 2026-05-07 15:36 | 58.49320 | 18.77998 | 38122 ft | 424 kts | 236° |
| 2026-05-07 15:36 | 58.45888 | 18.68949 | 38120 ft | 424 kts | 236° |
| 2026-05-07 15:37 | 58.42416 | 18.59822 | 38107 ft | 425 kts | 236° |
| 2026-05-07 15:37 | 58.38960 | 18.50774 | 38117 ft | 425 kts | 236° |
| 2026-05-07 15:38 | 58.35475 | 18.41686 | 38115 ft | 425 kts | 236° |
| 2026-05-07 15:38 | 58.32005 | 18.32672 | 38111 ft | 426 kts | 235° |
| 2026-05-07 15:39 | 58.28486 | 18.23562 | 38075 ft | 426 kts | 235° |
| 2026-05-07 15:39 | 58.24994 | 18.14558 | 38104 ft | 427 kts | 235° |
| 2026-05-07 15:40 | 58.21492 | 18.05571 | 38107 ft | 427 kts | 235° |
| 2026-05-07 15:40 | 58.18093 | 17.96353 | 38098 ft | 426 kts | 239° |
| 2026-05-07 15:41 | 58.14893 | 17.86959 | 38111 ft | 426 kts | 238° |
| 2026-05-07 15:41 | 58.11691 | 17.77624 | 38102 ft | 426 kts | 238° |
| 2026-05-07 15:42 | 58.08464 | 17.68243 | 38099 ft | 427 kts | 238° |
| 2026-05-07 15:42 | 58.05241 | 17.58909 | 38099 ft | 427 kts | 238° |
| 2026-05-07 15:43 | 58.01994 | 17.49536 | 38101 ft | 428 kts | 238° |
| 2026-05-07 15:43 | 57.98748 | 17.40203 | 38105 ft | 428 kts | 238° |
| 2026-05-07 15:44 | 57.95494 | 17.30887 | 38106 ft | 428 kts | 238° |
| 2026-05-07 15:44 | 57.92213 | 17.21528 | 38106 ft | 428 kts | 238° |
| 2026-05-07 15:45 | 57.88936 | 17.12214 | 38107 ft | 428 kts | 238° |
| 2026-05-07 15:45 | 57.85641 | 17.02881 | 38105 ft | 430 kts | 238° |
| 2026-05-07 15:46 | 57.80692 | 16.88940 | 38094 ft | 431 kts | 237° |
| 2026-05-07 15:47 | 57.77383 | 16.79665 | 38093 ft | 431 kts | 238° |
| 2026-05-07 15:47 | 57.74042 | 16.70334 | 38088 ft | 431 kts | 237° |
| 2026-05-07 15:48 | 57.70710 | 16.61064 | 38078 ft | 431 kts | 238° |
| 2026-05-07 15:48 | 57.67352 | 16.51759 | 38075 ft | 432 kts | 237° |
| 2026-05-07 15:49 | 57.64011 | 16.42536 | 38073 ft | 432 kts | 238° |
| 2026-05-07 15:49 | 57.60636 | 16.33259 | 38067 ft | 433 kts | 237° |
| 2026-05-07 15:50 | 57.57254 | 16.23993 | 38069 ft | 433 kts | 237° |
| 2026-05-07 15:50 | 57.53876 | 16.14775 | 38076 ft | 434 kts | 237° |
| 2026-05-07 15:51 | 57.50471 | 16.05517 | 38062 ft | 434 kts | 237° |
| 2026-05-07 15:51 | 57.47047 | 15.96249 | 38062 ft | 434 kts | 237° |
| 2026-05-07 15:52 | 57.43625 | 15.87019 | 38061 ft | 434 kts | 237° |
| 2026-05-07 15:52 | 57.40227 | 15.77890 | 38054 ft | 434 kts | 237° |
| 2026-05-07 15:53 | 57.36791 | 15.68692 | 38056 ft | 435 kts | 237° |
| 2026-05-07 15:53 | 57.33346 | 15.59506 | 38053 ft | 435 kts | 237° |
| 2026-05-07 15:54 | 57.29853 | 15.50233 | 38056 ft | 436 kts | 237° |
| 2026-05-07 15:54 | 57.26392 | 15.41068 | 38052 ft | 437 kts | 236° |
| 2026-05-07 15:55 | 57.22915 | 15.31906 | 38048 ft | 437 kts | 236° |
| 2026-05-07 15:55 | 57.19399 | 15.22675 | 38044 ft | 437 kts | 236° |
| 2026-05-07 15:56 | 57.15907 | 15.13541 | 38044 ft | 436 kts | 236° |
| 2026-05-07 15:56 | 57.12395 | 15.04387 | 38043 ft | 436 kts | 236° |
| 2026-05-07 15:57 | 57.08901 | 14.95315 | 38046 ft | 438 kts | 236° |
| 2026-05-07 15:57 | 57.05361 | 14.86154 | 38044 ft | 439 kts | 236° |
| 2026-05-07 15:58 | 57.01843 | 14.77090 | 38045 ft | 439 kts | 236° |
| 2026-05-07 15:58 | 56.98300 | 14.67992 | 38046 ft | 440 kts | 236° |
| 2026-05-07 15:59 | 56.94733 | 14.58873 | 38053 ft | 440 kts | 235° |
| 2026-05-07 15:59 | 56.91154 | 14.49782 | 38058 ft | 440 kts | 235° |
| 2026-05-07 16:00 | 56.87517 | 14.40770 | 38053 ft | 440 kts | 235° |
| 2026-05-07 16:00 | 56.83890 | 14.31833 | 38051 ft | 441 kts | 234° |
| 2026-05-07 16:01 | 56.80226 | 14.22830 | 38050 ft | 442 kts | 234° |
| 2026-05-07 16:01 | 56.76570 | 14.13871 | 38053 ft | 442 kts | 234° |
| 2026-05-07 16:02 | 56.72871 | 14.04841 | 38057 ft | 443 kts | 234° |
| 2026-05-07 16:02 | 56.69194 | 13.95899 | 38059 ft | 442 kts | 234° |
| 2026-05-07 16:03 | 56.65509 | 13.86970 | 38056 ft | 443 kts | 234° |
| 2026-05-07 16:03 | 56.61798 | 13.78007 | 38057 ft | 443 kts | 234° |
| 2026-05-07 16:04 | 56.58092 | 13.69089 | 38053 ft | 444 kts | 234° |
| 2026-05-07 16:04 | 56.54359 | 13.60140 | 38063 ft | 444 kts | 234° |
| 2026-05-07 16:05 | 56.50634 | 13.51247 | 38064 ft | 445 kts | 234° |
| 2026-05-07 16:05 | 56.46904 | 13.42372 | 38066 ft | 445 kts | 234° |
| 2026-05-07 16:06 | 56.43141 | 13.33452 | 38062 ft | 446 kts | 233° |
| 2026-05-07 16:06 | 56.39387 | 13.24587 | 38077 ft | 445 kts | 233° |
| 2026-05-07 16:07 | 56.35626 | 13.15735 | 38082 ft | 445 kts | 233° |
| 2026-05-07 16:07 | 56.31868 | 13.06919 | 38084 ft | 446 kts | 233° |
| 2026-05-07 16:08 | 56.28098 | 12.98112 | 38086 ft | 446 kts | 233° |
| 2026-05-07 16:08 | 56.24300 | 12.89267 | 38089 ft | 447 kts | 233° |
| 2026-05-07 16:09 | 56.20515 | 12.80489 | 38088 ft | 448 kts | 233° |
| 2026-05-07 16:09 | 56.16700 | 12.71673 | 38093 ft | 448 kts | 233° |
| 2026-05-07 16:10 | 56.12890 | 12.62899 | 38094 ft | 448 kts | 233° |
| 2026-05-07 16:10 | 56.09059 | 12.54168 | 38089 ft | 448 kts | 232° |
| 2026-05-07 16:11 | 56.05064 | 12.45615 | 38091 ft | 448 kts | 231° |
| 2026-05-07 16:11 | 56.01081 | 12.37168 | 38082 ft | 448 kts | 231° |
| 2026-05-07 16:12 | 55.97041 | 12.28604 | 38094 ft | 449 kts | 230° |
| 2026-05-07 16:12 | 55.93033 | 12.20119 | 38096 ft | 449 kts | 230° |
| 2026-05-07 16:13 | 55.89031 | 12.11673 | 38094 ft | 450 kts | 230° |
| 2026-05-07 16:13 | 55.84998 | 12.03192 | 38098 ft | 449 kts | 230° |
| 2026-05-07 16:14 | 55.80959 | 11.94723 | 38095 ft | 449 kts | 230° |
| 2026-05-07 16:14 | 55.76926 | 11.86295 | 38086 ft | 449 kts | 230° |
| 2026-05-07 16:15 | 55.72891 | 11.77892 | 38091 ft | 450 kts | 230° |
| 2026-05-07 16:15 | 55.68825 | 11.69457 | 38111 ft | 450 kts | 230° |
| 2026-05-07 16:16 | 55.64794 | 11.61123 | 38103 ft | 450 kts | 230° |
| 2026-05-07 16:16 | 55.60706 | 11.52701 | 38104 ft | 450 kts | 230° |
| 2026-05-07 16:17 | 55.56651 | 11.44373 | 38108 ft | 451 kts | 230° |
| 2026-05-07 16:17 | 55.52565 | 11.36013 | 38098 ft | 451 kts | 230° |
| 2026-05-07 16:18 | 55.48476 | 11.27673 | 38099 ft | 451 kts | 229° |
| 2026-05-07 16:18 | 55.44367 | 11.19319 | 38115 ft | 451 kts | 229° |
| 2026-05-07 16:19 | 55.40263 | 11.11006 | 38117 ft | 452 kts | 229° |
| 2026-05-07 16:19 | 55.36142 | 11.02693 | 38110 ft | 452 kts | 229° |
| 2026-05-07 16:20 | 55.32091 | 10.94258 | 38124 ft | 452 kts | 233° |
| 2026-05-07 16:20 | 55.28330 | 10.85519 | 38119 ft | 452 kts | 233° |
| 2026-05-07 16:21 | 55.24532 | 10.76725 | 38107 ft | 453 kts | 233° |
| 2026-05-07 16:21 | 55.20737 | 10.67968 | 38114 ft | 453 kts | 233° |
| 2026-05-07 16:22 | 55.16956 | 10.59273 | 38120 ft | 453 kts | 233° |
| 2026-05-07 16:22 | 55.13163 | 10.50577 | 38117 ft | 453 kts | 233° |
| 2026-05-07 16:23 | 55.09351 | 10.41871 | 38124 ft | 453 kts | 233° |
| 2026-05-07 16:23 | 55.05507 | 10.33120 | 38115 ft | 454 kts | 232° |
| 2026-05-07 16:24 | 55.01672 | 10.24418 | 38116 ft | 454 kts | 232° |
| 2026-05-07 16:24 | 54.97833 | 10.15738 | 38138 ft | 454 kts | 232° |
| 2026-05-07 16:25 | 54.93982 | 10.07068 | 38122 ft | 454 kts | 232° |
| 2026-05-07 16:25 | 54.90100 | 9.98459 | 38123 ft | 454 kts | 230° |
| 2026-05-07 16:26 | 54.85993 | 9.90085 | 38116 ft | 453 kts | 230° |
| 2026-05-07 16:26 | 54.82099 | 9.81611 | 38116 ft | 453 kts | 234° |
| 2026-05-07 16:27 | 54.78413 | 9.72792 | 38118 ft | 453 kts | 234° |
| 2026-05-07 16:27 | 54.74714 | 9.63981 | 38119 ft | 454 kts | 234° |
| 2026-05-07 16:28 | 54.71016 | 9.55203 | 38099 ft | 454 kts | 234° |
| 2026-05-07 16:28 | 54.67290 | 9.46387 | 38102 ft | 454 kts | 234° |
| 2026-05-07 16:29 | 54.63574 | 9.37628 | 38104 ft | 454 kts | 234° |
| 2026-05-07 16:29 | 54.59845 | 9.28869 | 38096 ft | 454 kts | 233° |
| 2026-05-07 16:30 | 54.56107 | 9.20117 | 38094 ft | 454 kts | 233° |
| 2026-05-07 16:30 | 54.52360 | 9.11377 | 38093 ft | 455 kts | 233° |
| 2026-05-07 16:31 | 54.48624 | 9.02693 | 38106 ft | 454 kts | 233° |
| 2026-05-07 16:31 | 54.44876 | 8.94012 | 38100 ft | 455 kts | 233° |
| 2026-05-07 16:32 | 54.41093 | 8.85282 | 38095 ft | 454 kts | 233° |
| 2026-05-07 16:32 | 54.37336 | 8.76638 | 38092 ft | 455 kts | 233° |
| 2026-05-07 16:33 | 54.33568 | 8.67999 | 38093 ft | 455 kts | 233° |
| 2026-05-07 16:33 | 54.29789 | 8.59365 | 38088 ft | 455 kts | 233° |
| 2026-05-07 16:34 | 54.25992 | 8.50722 | 38101 ft | 455 kts | 233° |
| 2026-05-07 16:34 | 54.22216 | 8.42158 | 38103 ft | 455 kts | 233° |
| 2026-05-07 16:35 | 54.18404 | 8.33539 | 38100 ft | 455 kts | 232° |
| 2026-05-07 16:35 | 54.14590 | 8.24946 | 38098 ft | 455 kts | 232° |
| 2026-05-07 16:36 | 54.10773 | 8.16374 | 38101 ft | 456 kts | 232° |
| 2026-05-07 16:36 | 54.06954 | 8.07828 | 38096 ft | 456 kts | 232° |
| 2026-05-07 16:37 | 54.03121 | 7.99282 | 38098 ft | 456 kts | 232° |
| 2026-05-07 16:37 | 53.99297 | 7.90784 | 38095 ft | 456 kts | 232° |
| 2026-05-07 16:38 | 53.95434 | 7.82227 | 38097 ft | 456 kts | 232° |
| 2026-05-07 16:38 | 53.91600 | 7.73763 | 38096 ft | 456 kts | 232° |
| 2026-05-07 16:39 | 53.87741 | 7.65276 | 38085 ft | 455 kts | 232° |
| 2026-05-07 16:39 | 53.83868 | 7.56789 | 38094 ft | 455 kts | 232° |
| 2026-05-07 16:40 | 53.79981 | 7.48296 | 38091 ft | 455 kts | 232° |
| 2026-05-07 16:40 | 53.76139 | 7.39928 | 38090 ft | 455 kts | 232° |
| 2026-05-07 16:41 | 53.72237 | 7.31458 | 38095 ft | 455 kts | 231° |
| 2026-05-07 16:41 | 53.68357 | 7.23064 | 38090 ft | 455 kts | 231° |
| 2026-05-07 16:42 | 53.64486 | 7.14720 | 38089 ft | 455 kts | 231° |
| 2026-05-07 16:42 | 53.60594 | 7.06362 | 38093 ft | 455 kts | 231° |
| 2026-05-07 16:43 | 53.56699 | 6.98020 | 38095 ft | 453 kts | 231° |
| 2026-05-07 16:43 | 53.52813 | 6.89729 | 38091 ft | 454 kts | 231° |
| 2026-05-07 16:44 | 53.48904 | 6.81412 | 38088 ft | 453 kts | 231° |
| 2026-05-07 16:44 | 53.45007 | 6.73149 | 38091 ft | 453 kts | 231° |
| 2026-05-07 16:45 | 53.41115 | 6.64924 | 38091 ft | 453 kts | 231° |
| 2026-05-07 16:45 | 53.37193 | 6.56667 | 38089 ft | 453 kts | 231° |
| 2026-05-07 16:46 | 53.33289 | 6.48470 | 38089 ft | 453 kts | 231° |
| 2026-05-07 16:46 | 53.29371 | 6.40273 | 38086 ft | 453 kts | 231° |
| 2026-05-07 16:47 | 53.25446 | 6.32085 | 38208 ft | 453 kts | 231° |
| 2026-05-07 16:47 | 53.23460 | 6.27951 | 38069 ft | 452 kts | 231° |
| 2026-05-07 16:47 | 53.21482 | 6.23841 | 38082 ft | 452 kts | 230° |
| 2026-05-07 16:48 | 53.17554 | 6.15701 | 38060 ft | 452 kts | 230° |
| 2026-05-07 16:48 | 53.13605 | 6.07550 | 38134 ft | 452 kts | 231° |
| 2026-05-07 16:48 | 53.11614 | 6.03449 | 37997 ft | 452 kts | 231° |
| 2026-05-07 16:49 | 53.09658 | 5.99424 | 38159 ft | 453 kts | 231° |
| 2026-05-07 16:49 | 53.05687 | 5.91275 | 38101 ft | 452 kts | 231° |
| 2026-05-07 16:50 | 53.01739 | 5.83198 | 38083 ft | 451 kts | 231° |
| 2026-05-07 16:50 | 52.97762 | 5.75089 | 38083 ft | 451 kts | 231° |
| 2026-05-07 16:51 | 52.93778 | 5.66989 | 38076 ft | 451 kts | 231° |
| 2026-05-07 16:51 | 52.89791 | 5.58909 | 38077 ft | 451 kts | 230° |
| 2026-05-07 16:52 | 52.85783 | 5.50815 | 38078 ft | 451 kts | 230° |
| 2026-05-07 16:52 | 52.81780 | 5.42758 | 38081 ft | 451 kts | 231° |
| 2026-05-07 16:53 | 52.77762 | 5.34698 | 38085 ft | 451 kts | 230° |
| 2026-05-07 16:53 | 52.73912 | 5.26456 | 38082 ft | 451 kts | 234° |
| 2026-05-07 16:54 | 52.70594 | 5.17659 | 38082 ft | 451 kts | 239° |
| 2026-05-07 16:54 | 52.67435 | 5.08762 | 38084 ft | 451 kts | 239° |
| 2026-05-07 16:55 | 52.64254 | 4.99843 | 38082 ft | 451 kts | 239° |
| 2026-05-07 16:55 | 52.61075 | 4.90963 | 38083 ft | 451 kts | 239° |
| 2026-05-07 16:56 | 52.57879 | 4.82072 | 38082 ft | 451 kts | 239° |
| 2026-05-07 16:56 | 52.53077 | 4.68770 | 38083 ft | 450 kts | 239° |
| 2026-05-07 16:57 | 52.49855 | 4.59882 | 38083 ft | 450 kts | 239° |
| 2026-05-07 16:57 | 52.46634 | 4.51026 | 38086 ft | 450 kts | 239° |
| 2026-05-07 16:58 | 52.43398 | 4.42160 | 38087 ft | 449 kts | 239° |
| 2026-05-07 16:58 | 52.40163 | 4.33329 | 38086 ft | 448 kts | 238° |
| 2026-05-07 16:59 | 52.36940 | 4.24563 | 38088 ft | 447 kts | 238° |
| 2026-05-07 16:59 | 52.33696 | 4.15772 | 38088 ft | 447 kts | 238° |
| 2026-05-07 17:00 | 52.30470 | 4.07059 | 38093 ft | 447 kts | 238° |
| 2026-05-07 17:00 | 52.27245 | 3.98377 | 38090 ft | 448 kts | 238° |
| 2026-05-07 17:01 | 52.24016 | 3.89710 | 38087 ft | 448 kts | 238° |
| 2026-05-07 17:01 | 52.20777 | 3.81049 | 38084 ft | 448 kts | 238° |
| 2026-05-07 17:02 | 52.17542 | 3.72428 | 38079 ft | 448 kts | 238° |
| 2026-05-07 17:02 | 52.14291 | 3.63794 | 38078 ft | 447 kts | 238° |
| 2026-05-07 17:03 | 52.11044 | 3.55197 | 38076 ft | 447 kts | 238° |
| 2026-05-07 17:03 | 52.07798 | 3.46634 | 38074 ft | 446 kts | 238° |
| 2026-05-07 17:04 | 52.04528 | 3.38035 | 38080 ft | 447 kts | 238° |
| 2026-05-07 17:04 | 52.01284 | 3.29485 | 38078 ft | 447 kts | 239° |
| 2026-05-07 17:05 | 51.98528 | 3.20476 | 38079 ft | 447 kts | 247° |
| 2026-05-07 17:05 | 51.96574 | 3.10914 | 38080 ft | 448 kts | 255° |
| 2026-05-07 17:06 | 51.95473 | 3.01079 | 38075 ft | 448 kts | 262° |
| 2026-05-07 17:06 | 51.94821 | 2.91062 | 38079 ft | 448 kts | 263° |
| 2026-05-07 17:07 | 51.94178 | 2.81011 | 38079 ft | 448 kts | 263° |
| 2026-05-07 17:07 | 51.93518 | 2.71031 | 38076 ft | 448 kts | 263° |
| 2026-05-07 17:08 | 51.92844 | 2.61048 | 38077 ft | 448 kts | 263° |
| 2026-05-07 17:08 | 51.92155 | 2.51077 | 38077 ft | 448 kts | 263° |
| 2026-05-07 17:09 | 51.91456 | 2.41085 | 38073 ft | 448 kts | 263° |
| 2026-05-07 17:09 | 51.90821 | 2.30999 | 38076 ft | 448 kts | 265° |
| 2026-05-07 17:10 | 51.90564 | 2.20951 | 38075 ft | 449 kts | 266° |
| 2026-05-07 17:10 | 51.90334 | 2.10895 | 38076 ft | 448 kts | 266° |
| 2026-05-07 17:11 | 51.90087 | 2.00859 | 38076 ft | 448 kts | 266° |
| 2026-05-07 17:11 | 51.89452 | 1.90824 | 38076 ft | 448 kts | 260° |
| 2026-05-07 17:12 | 51.88154 | 1.81070 | 38076 ft | 447 kts | 254° |
| 2026-05-07 17:12 | 51.86280 | 1.71463 | 38075 ft | 446 kts | 251° |
| 2026-05-07 17:13 | 51.84348 | 1.62002 | 38074 ft | 446 kts | 251° |
| 2026-05-07 17:13 | 51.82403 | 1.52520 | 38075 ft | 446 kts | 251° |
| 2026-05-07 17:14 | 51.80459 | 1.43087 | 38077 ft | 446 kts | 251° |
| 2026-05-07 17:14 | 51.78495 | 1.33604 | 38075 ft | 445 kts | 250° |
| 2026-05-07 17:15 | 51.76533 | 1.24169 | 38073 ft | 446 kts | 251° |
| 2026-05-07 17:15 | 51.74551 | 1.14683 | 38073 ft | 446 kts | 251° |
| 2026-05-07 17:16 | 51.72579 | 1.05291 | 38076 ft | 445 kts | 251° |
| 2026-05-07 17:16 | 51.70851 | 0.95739 | 38073 ft | 445 kts | 256° |
| 2026-05-07 17:17 | 51.69750 | 0.85899 | 38073 ft | 445 kts | 262° |
| 2026-05-07 17:17 | 51.68090 | 0.76466 | 38068 ft | 444 kts | 241° |
| 2026-05-07 17:18 | 51.64610 | 0.68289 | 38069 ft | 443 kts | 234° |
| 2026-05-07 17:18 | 51.61029 | 0.60281 | 38065 ft | 443 kts | 234° |
| 2026-05-07 17:19 | 51.57430 | 0.52187 | 38067 ft | 444 kts | 235° |
| 2026-05-07 17:19 | 51.53859 | 0.44158 | 38063 ft | 444 kts | 235° |
| 2026-05-07 17:20 | 51.50270 | 0.36109 | 38062 ft | 443 kts | 235° |
| 2026-05-07 17:20 | 51.46663 | 0.28042 | 38059 ft | 443 kts | 234° |
| 2026-05-07 17:21 | 51.43068 | 0.20025 | 38057 ft | 442 kts | 234° |
| 2026-05-07 17:21 | 51.39474 | 0.12037 | 38056 ft | 442 kts | 234° |
| 2026-05-07 17:22 | 51.35809 | 0.04206 | 38052 ft | 442 kts | 229° |
| 2026-05-07 17:22 | 51.31696 | -0.03109 | 38053 ft | 442 kts | 228° |
| 2026-05-07 17:23 | 51.27582 | -0.10325 | 38050 ft | 441 kts | 228° |
| 2026-05-07 17:23 | 51.23457 | -0.17595 | 38047 ft | 442 kts | 228° |
| 2026-05-07 17:24 | 51.19318 | -0.24890 | 38048 ft | 442 kts | 228° |
| 2026-05-07 17:24 | 51.15213 | -0.32114 | 38045 ft | 442 kts | 228° |
| 2026-05-07 17:25 | 51.11082 | -0.39366 | 38041 ft | 442 kts | 228° |
| 2026-05-07 17:25 | 51.06992 | -0.46530 | 38041 ft | 442 kts | 229° |
| 2026-05-07 17:26 | 51.02859 | -0.53746 | 38038 ft | 441 kts | 229° |
| 2026-05-07 17:26 | 50.98758 | -0.60890 | 38037 ft | 440 kts | 229° |
| 2026-05-07 17:27 | 50.94625 | -0.68073 | 38035 ft | 440 kts | 227° |
| 2026-05-07 17:27 | 50.90494 | -0.75229 | 38031 ft | 440 kts | 227° |
| 2026-05-07 17:28 | 50.86377 | -0.82341 | 38029 ft | 441 kts | 227° |
| 2026-05-07 17:28 | 50.82236 | -0.89474 | 38026 ft | 441 kts | 227° |
| 2026-05-07 17:29 | 50.78083 | -0.96606 | 38020 ft | 441 kts | 227° |
| 2026-05-07 17:29 | 50.73935 | -1.03708 | 38017 ft | 441 kts | 227° |
| 2026-05-07 17:30 | 50.69792 | -1.10785 | 38016 ft | 440 kts | 227° |
| 2026-05-07 17:30 | 50.65641 | -1.17855 | 38017 ft | 440 kts | 227° |
| 2026-05-07 17:31 | 50.61512 | -1.24865 | 38021 ft | 440 kts | 227° |
| 2026-05-07 17:31 | 50.57354 | -1.31905 | 38027 ft | 439 kts | 227° |
| 2026-05-07 17:32 | 50.53193 | -1.38930 | 38056 ft | 441 kts | 227° |
| 2026-05-07 17:32 | 50.49047 | -1.45911 | 37912 ft | 440 kts | 227° |
| 2026-05-07 17:33 | 50.44862 | -1.52940 | 37997 ft | 441 kts | 227° |
| 2026-05-07 17:33 | 50.40671 | -1.59958 | 38010 ft | 441 kts | 227° |
| 2026-05-07 17:34 | 50.36508 | -1.66916 | 38014 ft | 441 kts | 227° |
| 2026-05-07 17:34 | 50.32327 | -1.73882 | 38011 ft | 441 kts | 227° |
| 2026-05-07 17:35 | 50.28146 | -1.80827 | 38010 ft | 441 kts | 227° |
| 2026-05-07 17:35 | 50.23953 | -1.87774 | 38006 ft | 441 kts | 227° |
| 2026-05-07 17:36 | 50.19749 | -1.94719 | 38002 ft | 441 kts | 227° |
| 2026-05-07 17:36 | 50.15519 | -2.01689 | 37999 ft | 442 kts | 227° |
| 2026-05-07 17:37 | 50.11317 | -2.08596 | 38008 ft | 441 kts | 227° |
| 2026-05-07 17:37 | 50.07121 | -2.15477 | 38009 ft | 441 kts | 227° |
| 2026-05-07 17:38 | 50.02905 | -2.22370 | 38010 ft | 440 kts | 227° |
| 2026-05-07 17:38 | 49.98627 | -2.29119 | 38003 ft | 440 kts | 223° |
| 2026-05-07 17:39 | 49.93934 | -2.35106 | 38001 ft | 441 kts | 217° |
| 2026-05-07 17:39 | 49.88787 | -2.40230 | 37997 ft | 442 kts | 210° |
| 2026-05-07 17:40 | 49.83263 | -2.44427 | 38002 ft | 443 kts | 206° |
| 2026-05-07 17:40 | 49.77651 | -2.48340 | 38000 ft | 443 kts | 206° |
| 2026-05-07 17:41 | 49.72015 | -2.52262 | 37998 ft | 443 kts | 206° |
| 2026-05-07 17:41 | 49.66431 | -2.56137 | 37998 ft | 443 kts | 206° |
| 2026-05-07 17:42 | 49.60831 | -2.60014 | 37994 ft | 442 kts | 206° |
| 2026-05-07 17:42 | 49.55253 | -2.63865 | 37992 ft | 442 kts | 206° |
| 2026-05-07 17:43 | 49.49617 | -2.67745 | 37991 ft | 442 kts | 205° |
| 2026-05-07 17:43 | 49.44013 | -2.71594 | 37988 ft | 442 kts | 205° |
| 2026-05-07 17:44 | 49.38408 | -2.75434 | 37984 ft | 443 kts | 205° |
| 2026-05-07 17:44 | 49.32814 | -2.79256 | 37982 ft | 443 kts | 205° |
| 2026-05-07 17:45 | 49.27189 | -2.83087 | 37980 ft | 443 kts | 205° |
| 2026-05-07 17:45 | 49.21574 | -2.86905 | 37973 ft | 443 kts | 205° |
| 2026-05-07 17:46 | 49.15933 | -2.90732 | 38028 ft | 441 kts | 205° |
| 2026-05-07 17:46 | 49.10362 | -2.94501 | 37992 ft | 441 kts | 205° |
| 2026-05-07 17:47 | 49.07551 | -2.96398 | 37864 ft | 441 kts | 205° |
| 2026-05-07 17:47 | 49.04763 | -2.98278 | 37922 ft | 442 kts | 205° |
| 2026-05-07 17:47 | 48.99172 | -3.02041 | 38050 ft | 443 kts | 205° |
| 2026-05-07 17:48 | 48.93538 | -3.05827 | 37997 ft | 442 kts | 205° |
| 2026-05-07 17:48 | 48.87892 | -3.09608 | 37978 ft | 443 kts | 205° |
| 2026-05-07 17:49 | 48.82259 | -3.13370 | 37973 ft | 442 kts | 205° |
| 2026-05-07 17:49 | 48.76632 | -3.17120 | 37974 ft | 442 kts | 205° |
| 2026-05-07 17:50 | 48.71011 | -3.20859 | 37972 ft | 442 kts | 205° |
| 2026-05-07 17:50 | 48.65412 | -3.24573 | 37970 ft | 442 kts | 205° |
| 2026-05-07 17:51 | 48.59746 | -3.28322 | 37970 ft | 443 kts | 205° |
| 2026-05-07 17:51 | 48.54115 | -3.32039 | 37970 ft | 444 kts | 205° |
| 2026-05-07 17:52 | 48.48462 | -3.35760 | 37970 ft | 444 kts | 205° |
| 2026-05-07 17:52 | 48.42811 | -3.39472 | 37971 ft | 444 kts | 205° |
| 2026-05-07 17:53 | 48.37180 | -3.43161 | 37969 ft | 443 kts | 205° |
| 2026-05-07 17:53 | 48.31515 | -3.46863 | 38195 ft | 445 kts | 205° |
| 2026-05-07 17:54 | 48.28693 | -3.48703 | 38420 ft | 444 kts | 205° |
| 2026-05-07 17:54 | 48.25886 | -3.50533 | 38597 ft | 444 kts | 205° |
| 2026-05-07 17:54 | 48.23059 | -3.52373 | 38746 ft | 445 kts | 205° |
| 2026-05-07 17:54 | 48.20235 | -3.54210 | 38905 ft | 447 kts | 205° |
| 2026-05-07 17:55 | 48.14522 | -3.57917 | 38968 ft | 448 kts | 205° |
| 2026-05-07 17:55 | 48.08797 | -3.61622 | 38973 ft | 448 kts | 206° |
| 2026-05-07 17:56 | 48.03063 | -3.65326 | 38974 ft | 449 kts | 205° |
| 2026-05-07 17:56 | 47.97351 | -3.69006 | 38973 ft | 449 kts | 205° |
| 2026-05-07 17:57 | 47.92585 | -3.72069 | 38970 ft | 449 kts | 205° |
| 2026-05-07 17:57 | 47.85938 | -3.76332 | 38972 ft | 448 kts | 205° |
| 2026-05-07 17:58 | 47.80200 | -3.80002 | 38973 ft | 448 kts | 205° |
| 2026-05-07 17:58 | 47.74495 | -3.83643 | 38974 ft | 449 kts | 205° |
| 2026-05-07 17:59 | 47.68765 | -3.87288 | 38972 ft | 449 kts | 205° |
| 2026-05-07 17:59 | 47.63044 | -3.90921 | 38973 ft | 450 kts | 205° |
| 2026-05-07 18:00 | 47.57263 | -3.94583 | 38973 ft | 451 kts | 205° |
| 2026-05-07 18:00 | 47.51518 | -3.98214 | 38969 ft | 451 kts | 205° |
| 2026-05-07 18:01 | 47.45767 | -4.01839 | 38975 ft | 450 kts | 205° |
| 2026-05-07 18:01 | 47.40052 | -4.05434 | 38977 ft | 449 kts | 205° |
| 2026-05-07 18:02 | 47.31449 | -4.10831 | 38975 ft | 449 kts | 205° |
| 2026-05-07 18:03 | 47.25682 | -4.14438 | 38979 ft | 449 kts | 205° |
| 2026-05-07 18:03 | 47.19963 | -4.18006 | 38978 ft | 449 kts | 205° |
| 2026-05-07 18:04 | 47.14220 | -4.21584 | 38975 ft | 449 kts | 205° |
| 2026-05-07 18:04 | 47.08460 | -4.25161 | 38979 ft | 449 kts | 205° |
| 2026-05-07 18:05 | 47.02789 | -4.28912 | 38974 ft | 449 kts | 207° |
| 2026-05-07 18:05 | 46.97163 | -4.32749 | 38976 ft | 449 kts | 207° |
| 2026-05-07 18:06 | 46.91508 | -4.36601 | 38982 ft | 449 kts | 207° |
| 2026-05-07 18:06 | 46.85872 | -4.40434 | 38978 ft | 448 kts | 207° |
| 2026-05-07 18:07 | 46.80225 | -4.44271 | 38976 ft | 449 kts | 207° |
| 2026-05-07 18:07 | 46.74607 | -4.48080 | 38981 ft | 450 kts | 207° |
| 2026-05-07 18:08 | 46.68918 | -4.51925 | 38976 ft | 450 kts | 207° |
| 2026-05-07 18:08 | 46.63269 | -4.55736 | 38978 ft | 450 kts | 207° |
| 2026-05-07 18:09 | 46.57592 | -4.59558 | 38974 ft | 450 kts | 207° |
| 2026-05-07 18:09 | 46.51928 | -4.63363 | 38976 ft | 450 kts | 207° |
| 2026-05-07 18:10 | 46.46260 | -4.67160 | 38972 ft | 450 kts | 206° |
| 2026-05-07 18:10 | 46.40612 | -4.70936 | 38980 ft | 450 kts | 206° |
| 2026-05-07 18:11 | 46.34907 | -4.74741 | 38965 ft | 450 kts | 206° |
| 2026-05-07 18:11 | 46.29275 | -4.78488 | 38970 ft | 450 kts | 206° |
| 2026-05-07 18:12 | 46.23568 | -4.82276 | 38958 ft | 450 kts | 206° |
| 2026-05-07 18:12 | 46.17893 | -4.86035 | 38970 ft | 451 kts | 207° |
| 2026-05-07 18:13 | 46.12203 | -4.89796 | 38970 ft | 450 kts | 207° |
| 2026-05-07 18:13 | 46.06541 | -4.93529 | 38970 ft | 449 kts | 207° |
| 2026-05-07 18:14 | 46.00873 | -4.97259 | 38975 ft | 449 kts | 207° |
| 2026-05-07 18:14 | 45.95204 | -5.00982 | 38956 ft | 450 kts | 207° |
| 2026-05-07 18:15 | 45.89529 | -5.04697 | 38952 ft | 450 kts | 207° |
| 2026-05-07 18:15 | 45.83835 | -5.08418 | 38949 ft | 451 kts | 207° |
| 2026-05-07 18:16 | 45.78127 | -5.12139 | 38944 ft | 451 kts | 207° |
| 2026-05-07 18:16 | 45.72442 | -5.15837 | 38944 ft | 452 kts | 207° |
| 2026-05-07 18:17 | 45.66707 | -5.19559 | 38948 ft | 451 kts | 207° |
| 2026-05-07 18:17 | 45.61027 | -5.23236 | 38945 ft | 450 kts | 207° |
| 2026-05-07 18:18 | 45.55333 | -5.26916 | 38935 ft | 450 kts | 207° |
| 2026-05-07 18:18 | 45.49655 | -5.30578 | 38930 ft | 450 kts | 207° |
| 2026-05-07 18:19 | 45.43968 | -5.34236 | 38928 ft | 451 kts | 207° |
| 2026-05-07 18:19 | 45.38244 | -5.37909 | 38927 ft | 451 kts | 207° |
| 2026-05-07 18:20 | 45.32547 | -5.41559 | 38925 ft | 451 kts | 207° |
| 2026-05-07 18:20 | 45.26831 | -5.45212 | 38924 ft | 451 kts | 207° |
| 2026-05-07 18:21 | 45.21151 | -5.48833 | 38923 ft | 452 kts | 207° |
| 2026-05-07 18:21 | 45.15397 | -5.52494 | 38921 ft | 452 kts | 207° |
| 2026-05-07 18:22 | 45.09673 | -5.56127 | 38925 ft | 452 kts | 207° |
| 2026-05-07 18:22 | 45.03965 | -5.59742 | 38921 ft | 452 kts | 207° |
| 2026-05-07 18:23 | 44.98204 | -5.63385 | 38917 ft | 452 kts | 207° |
| 2026-05-07 18:23 | 44.92511 | -5.66975 | 38928 ft | 453 kts | 207° |
| 2026-05-07 18:24 | 44.86733 | -5.70613 | 38919 ft | 452 kts | 207° |
| 2026-05-07 18:24 | 44.81012 | -5.74207 | 38919 ft | 453 kts | 207° |
| 2026-05-07 18:25 | 44.75286 | -5.77800 | 38930 ft | 452 kts | 207° |
| 2026-05-07 18:25 | 44.69535 | -5.81441 | 38925 ft | 452 kts | 209° |
| 2026-05-07 18:26 | 44.64044 | -5.85656 | 38924 ft | 449 kts | 215° |
| 2026-05-07 18:26 | 44.58924 | -5.90556 | 38921 ft | 447 kts | 218° |
| 2026-05-07 18:27 | 44.53867 | -5.95565 | 38915 ft | 448 kts | 218° |
| 2026-05-07 18:27 | 44.48783 | -6.00587 | 38909 ft | 448 kts | 218° |
| 2026-05-07 18:28 | 44.43694 | -6.05606 | 38911 ft | 448 kts | 219° |
| 2026-05-07 18:28 | 44.38615 | -6.10604 | 38910 ft | 447 kts | 219° |
| 2026-05-07 18:29 | 44.33537 | -6.15592 | 38914 ft | 446 kts | 219° |
| 2026-05-07 18:29 | 44.28481 | -6.20544 | 38909 ft | 446 kts | 219° |
| 2026-05-07 18:30 | 44.23435 | -6.25479 | 38903 ft | 446 kts | 219° |
| 2026-05-07 18:30 | 44.18352 | -6.30438 | 38909 ft | 446 kts | 219° |
| 2026-05-07 18:31 | 44.13280 | -6.35377 | 38902 ft | 446 kts | 219° |
| 2026-05-07 18:31 | 44.08212 | -6.40302 | 38904 ft | 446 kts | 219° |
| 2026-05-07 18:32 | 44.03142 | -6.45217 | 38900 ft | 445 kts | 219° |
| 2026-05-07 18:32 | 43.98095 | -6.50097 | 38892 ft | 445 kts | 219° |
| 2026-05-07 18:33 | 43.93028 | -6.54989 | 38892 ft | 444 kts | 219° |
| 2026-05-07 18:33 | 43.87940 | -6.59889 | 38885 ft | 444 kts | 219° |
| 2026-05-07 18:34 | 43.82905 | -6.64728 | 38874 ft | 442 kts | 220° |
| 2026-05-07 18:34 | 43.77857 | -6.69574 | 38881 ft | 442 kts | 219° |
| 2026-05-07 18:35 | 43.72818 | -6.74396 | 38877 ft | 441 kts | 219° |
| 2026-05-07 18:35 | 43.67775 | -6.79213 | 38875 ft | 440 kts | 219° |
| 2026-05-07 18:36 | 43.62778 | -6.83978 | 38872 ft | 439 kts | 219° |
| 2026-05-07 18:36 | 43.57734 | -6.88779 | 38880 ft | 439 kts | 219° |
| 2026-05-07 18:37 | 43.52719 | -6.93539 | 38870 ft | 439 kts | 219° |
| 2026-05-07 18:37 | 43.47711 | -6.98284 | 38884 ft | 437 kts | 219° |
| 2026-05-07 18:38 | 43.42712 | -7.03007 | 38887 ft | 436 kts | 219° |
| 2026-05-07 18:38 | 43.37746 | -7.07693 | 38904 ft | 436 kts | 219° |
| 2026-05-07 18:39 | 43.32758 | -7.12390 | 38892 ft | 435 kts | 219° |
| 2026-05-07 18:39 | 43.27774 | -7.17073 | 38895 ft | 433 kts | 220° |
| 2026-05-07 18:40 | 43.22809 | -7.21730 | 38887 ft | 432 kts | 220° |
| 2026-05-07 18:40 | 43.17872 | -7.26353 | 38902 ft | 431 kts | 220° |
| 2026-05-07 18:41 | 43.12929 | -7.30968 | 38872 ft | 430 kts | 220° |
| 2026-05-07 18:41 | 43.08029 | -7.35537 | 38880 ft | 429 kts | 220° |
| 2026-05-07 18:42 | 43.03112 | -7.40117 | 38874 ft | 429 kts | 220° |
| 2026-05-07 18:42 | 42.98188 | -7.44691 | 38735 ft | 429 kts | 220° |
| 2026-05-07 18:42 | 42.95739 | -7.46961 | 38474 ft | 426 kts | 220° |
| 2026-05-07 18:43 | 42.93306 | -7.49212 | 38213 ft | 422 kts | 220° |
| 2026-05-07 18:43 | 42.90892 | -7.51443 | 37931 ft | 418 kts | 220° |
| 2026-05-07 18:43 | 42.88467 | -7.53684 | 37621 ft | 416 kts | 220° |
| 2026-05-07 18:43 | 42.86087 | -7.55884 | 37303 ft | 414 kts | 220° |
| 2026-05-07 18:44 | 42.83698 | -7.58092 | 36985 ft | 415 kts | 220° |
| 2026-05-07 18:44 | 42.81318 | -7.60289 | 36676 ft | 414 kts | 220° |
| 2026-05-07 18:44 | 42.78953 | -7.62469 | 36398 ft | 413 kts | 221° |
| 2026-05-07 18:44 | 42.76572 | -7.64664 | 36162 ft | 412 kts | 220° |
| 2026-05-07 18:45 | 42.74211 | -7.66835 | 35927 ft | 412 kts | 220° |
| 2026-05-07 18:45 | 42.71823 | -7.69032 | 35683 ft | 412 kts | 220° |
| 2026-05-07 18:45 | 42.69450 | -7.71210 | 35437 ft | 413 kts | 220° |
| 2026-05-07 18:45 | 42.67088 | -7.73339 | 35191 ft | 413 kts | 218° |
| 2026-05-07 18:46 | 42.64608 | -7.75324 | 34945 ft | 417 kts | 215° |
| 2026-05-07 18:46 | 42.61995 | -7.77143 | 34692 ft | 420 kts | 212° |
| 2026-05-07 18:46 | 42.59348 | -7.78726 | 34446 ft | 421 kts | 209° |
| 2026-05-07 18:46 | 42.56602 | -7.80109 | 34175 ft | 425 kts | 205° |
| 2026-05-07 18:47 | 42.53752 | -7.81291 | 33897 ft | 428 kts | 202° |
| 2026-05-07 18:47 | 42.50887 | -7.82371 | 33627 ft | 429 kts | 202° |
| 2026-05-07 18:47 | 42.47990 | -7.83463 | 33351 ft | 431 kts | 202° |
| 2026-05-07 18:47 | 42.45118 | -7.84545 | 33079 ft | 433 kts | 201° |
| 2026-05-07 18:48 | 42.42207 | -7.85637 | 32801 ft | 433 kts | 201° |
| 2026-05-07 18:48 | 42.39325 | -7.86714 | 32532 ft | 434 kts | 201° |
| 2026-05-07 18:48 | 42.36388 | -7.87813 | 32255 ft | 436 kts | 201° |
| 2026-05-07 18:48 | 42.33499 | -7.88894 | 31985 ft | 436 kts | 201° |
| 2026-05-07 18:49 | 42.30546 | -7.89995 | 31710 ft | 438 kts | 200° |
| 2026-05-07 18:49 | 42.27621 | -7.91085 | 31437 ft | 441 kts | 201° |
| 2026-05-07 18:49 | 42.24678 | -7.92181 | 31166 ft | 443 kts | 200° |
| 2026-05-07 18:49 | 42.21698 | -7.93288 | 30891 ft | 443 kts | 200° |
| 2026-05-07 18:50 | 42.18737 | -7.94388 | 30618 ft | 444 kts | 200° |
| 2026-05-07 18:50 | 42.15745 | -7.95499 | 30345 ft | 444 kts | 200° |
| 2026-05-07 18:50 | 42.12806 | -7.96586 | 30077 ft | 444 kts | 200° |
| 2026-05-07 18:50 | 42.09793 | -7.97702 | 29812 ft | 445 kts | 200° |
| 2026-05-07 18:51 | 42.06820 | -7.98804 | 29550 ft | 448 kts | 199° |
| 2026-05-07 18:51 | 42.03822 | -7.99915 | 29289 ft | 449 kts | 199° |
| 2026-05-07 18:51 | 42.00808 | -8.01029 | 29027 ft | 450 kts | 199° |
| 2026-05-07 18:51 | 41.97787 | -8.02142 | 28743 ft | 452 kts | 199° |
| 2026-05-07 18:52 | 41.94750 | -8.03265 | 28003 ft | 454 kts | 198° |
| 2026-05-07 18:52 | 41.91723 | -8.04383 | 27002 ft | 457 kts | 198° |
| 2026-05-07 18:52 | 41.88640 | -8.05520 | 25870 ft | 459 kts | 197° |
| 2026-05-07 18:52 | 41.85535 | -8.06677 | 24658 ft | 463 kts | 198° |
| 2026-05-07 18:53 | 41.82500 | -8.08054 | 23837 ft | 460 kts | 202° |
| 2026-05-07 18:53 | 41.79577 | -8.09715 | 23089 ft | 455 kts | 206° |
| 2026-05-07 18:53 | 41.76790 | -8.11644 | 22334 ft | 449 kts | 210° |
| 2026-05-07 18:53 | 41.74098 | -8.13649 | 21603 ft | 444 kts | 210° |
| 2026-05-07 18:54 | 41.71346 | -8.15544 | 20863 ft | 438 kts | 206° |
| 2026-05-07 18:54 | 41.68622 | -8.17146 | 20270 ft | 428 kts | 202° |
| 2026-05-07 18:54 | 41.65833 | -8.18543 | 19574 ft | 421 kts | 200° |
| 2026-05-07 18:54 | 41.63106 | -8.19797 | 18830 ft | 406 kts | 199° |
| 2026-05-07 18:55 | 41.60524 | -8.20963 | 17833 ft | 386 kts | 198° |
| 2026-05-07 18:55 | 41.58073 | -8.22071 | 16993 ft | 364 kts | 198° |
| 2026-05-07 18:55 | 41.55748 | -8.23125 | 16264 ft | 343 kts | 198° |
| 2026-05-07 18:55 | 41.53539 | -8.24130 | 15633 ft | 323 kts | 198° |
| 2026-05-07 18:56 | 41.51500 | -8.25060 | 15068 ft | 305 kts | 197° |
| 2026-05-07 18:56 | 41.49540 | -8.25952 | 14312 ft | 296 kts | 197° |
| 2026-05-07 18:56 | 41.47614 | -8.26830 | 13453 ft | 291 kts | 197° |
| 2026-05-07 18:56 | 41.45726 | -8.27690 | 12609 ft | 286 kts | 197° |
| 2026-05-07 18:57 | 41.43861 | -8.28536 | 11752 ft | 282 kts | 197° |
| 2026-05-07 18:57 | 41.42028 | -8.29369 | 10895 ft | 278 kts | 197° |
| 2026-05-07 18:57 | 41.40230 | -8.30187 | 10069 ft | 273 kts | 197° |
| 2026-05-07 18:57 | 41.38472 | -8.30987 | 9245 ft | 270 kts | 197° |
| 2026-05-07 18:58 | 41.36716 | -8.31781 | 8387 ft | 267 kts | 198° |
| 2026-05-07 18:58 | 41.34969 | -8.32571 | 7521 ft | 266 kts | 198° |
| 2026-05-07 18:58 | 41.33245 | -8.33353 | 6670 ft | 263 kts | 198° |
| 2026-05-07 18:58 | 41.31532 | -8.34128 | 5827 ft | 261 kts | 198° |
| 2026-05-07 18:59 | 41.29831 | -8.34899 | 4979 ft | 260 kts | 199° |
| 2026-05-07 18:59 | 41.28140 | -8.35722 | 4308 ft | 258 kts | 206° |
| 2026-05-07 18:59 | 41.26597 | -8.36893 | 3950 ft | 259 kts | 213° |
| 2026-05-07 18:59 | 41.25071 | -8.38194 | 3879 ft | 261 kts | 213° |
| 2026-05-07 19:00 | 41.23543 | -8.39490 | 3880 ft | 262 kts | 213° |
| 2026-05-07 19:00 | 41.21995 | -8.40778 | 3883 ft | 262 kts | 213° |
| 2026-05-07 19:00 | 41.20451 | -8.42041 | 3720 ft | 256 kts | 213° |
| 2026-05-07 19:00 | 41.18966 | -8.43243 | 3524 ft | 247 kts | 212° |
| 2026-05-07 19:01 | 41.17528 | -8.44398 | 3350 ft | 238 kts | 213° |
| 2026-05-07 19:01 | 41.16127 | -8.45522 | 3181 ft | 229 kts | 213° |
| 2026-05-07 19:01 | 41.14793 | -8.46590 | 3027 ft | 221 kts | 213° |
| 2026-05-07 19:01 | 41.13505 | -8.47621 | 2987 ft | 208 kts | 213° |
| 2026-05-07 19:02 | 41.12308 | -8.48580 | 2977 ft | 194 kts | 213° |
| 2026-05-07 19:02 | 41.11190 | -8.49474 | 2972 ft | 181 kts | 213° |
| 2026-05-07 19:02 | 41.10200 | -8.50470 | 2984 ft | 178 kts | 227° |
| 2026-05-07 19:02 | 41.09443 | -8.51778 | 2995 ft | 177 kts | 243° |
| 2026-05-07 19:03 | 41.08943 | -8.53249 | 3000 ft | 176 kts | 250° |
| 2026-05-07 19:03 | 41.08511 | -8.54778 | 3002 ft | 175 kts | 252° |
| 2026-05-07 19:03 | 41.08090 | -8.56285 | 3001 ft | 175 kts | 251° |
| 2026-05-07 19:03 | 41.07663 | -8.57800 | 3000 ft | 175 kts | 251° |
| 2026-05-07 19:04 | 41.07237 | -8.59294 | 2999 ft | 175 kts | 251° |
| 2026-05-07 19:04 | 41.06804 | -8.60814 | 3009 ft | 174 kts | 255° |
| 2026-05-07 19:04 | 41.06831 | -8.62284 | 3032 ft | 156 kts | 295° |
| 2026-05-07 19:04 | 41.07551 | -8.63230 | 2985 ft | 137 kts | 331° |
| 2026-05-07 19:05 | 41.08398 | -8.63679 | 2998 ft | 130 kts | 342° |
| 2026-05-07 19:05 | 41.09279 | -8.63993 | 2978 ft | 129 kts | 345° |
| 2026-05-07 19:05 | 41.10144 | -8.64258 | 2817 ft | 129 kts | 347° |
| 2026-05-07 19:05 | 41.11024 | -8.64507 | 2648 ft | 128 kts | 347° |
| 2026-05-07 19:06 | 41.11890 | -8.64743 | 2481 ft | 128 kts | 348° |
| 2026-05-07 19:06 | 41.13631 | -8.65202 | 2149 ft | 127 kts | 347° |
| 2026-05-07 19:06 | 41.14497 | -8.65428 | 1981 ft | 126 kts | 347° |
| 2026-05-07 19:07 | 41.15368 | -8.65655 | 1810 ft | 126 kts | 347° |
| 2026-05-07 19:07 | 41.16228 | -8.65879 | 1644 ft | 126 kts | 347° |
| 2026-05-07 19:07 | 41.17085 | -8.66102 | 1475 ft | 125 kts | 347° |
| 2026-05-07 19:07 | 41.17945 | -8.66326 | 1307 ft | 125 kts | 347° |
| 2026-05-07 19:08 | 41.18794 | -8.66548 | 1140 ft | 125 kts | 347° |
| 2026-05-07 19:08 | 41.19647 | -8.66772 | 978 ft | 124 kts | 347° |
| 2026-05-07 19:08 | 41.20499 | -8.66995 | 815 ft | 124 kts | 348° |
| 2026-05-07 19:08 | 41.21344 | -8.67215 | 645 ft | 124 kts | 346° |
| 2026-05-07 19:09 | 41.22196 | -8.67440 | 484 ft | 123 kts | 347° |
| 2026-05-07 19:09 | 41.23042 | -8.67655 | 308 ft | 123 kts | 346° |
| 2026-05-07 19:09 | 41.23857 | -8.67881 | 217 ft | 111 kts | 352° |
| 2026-05-07 19:09 | 41.24452 | -8.68037 | 201 ft | 62 kts | 348° |
| 2026-05-07 19:10 | 41.24723 | -8.68114 | 192 ft | 21 kts | 327° |
| 2026-05-07 19:10 | 41.24686 | -8.68227 | 192 ft | 14 kts | 199° |
| 2026-05-07 19:10 | 41.24605 | -8.68265 | 195 ft | 9 kts | 198° |
| 2026-05-07 19:10 | 41.24553 | -8.68283 | 196 ft | 5 kts | 188° |
| 2026-05-07 19:11 | 41.24520 | -8.68288 | 197 ft | 5 kts | 179° |
| 2026-05-07 19:11 | 41.24484 | -8.68284 | 198 ft | 5 kts | 174° |
| 2026-05-07 19:11 | 41.24449 | -8.68278 | 199 ft | 5 kts | 170° |
| 2026-05-07 19:11 | 41.24412 | -8.68267 | 200 ft | 5 kts | 166° |
| 2026-05-07 19:12 | 41.24377 | -8.68254 | 201 ft | 5 kts | 162° |
| 2026-05-07 19:12 | 41.24339 | -8.68237 | 202 ft | 5 kts | 162° |
| 2026-05-07 19:12 | 41.24301 | -8.68221 | 204 ft | 5 kts | 162° |
| 2026-05-07 19:12 | 41.24260 | -8.68204 | 205 ft | 6 kts | 163° |